createdAt,value
2017-10-08T00:00:23.115Z,99554.23
2017-10-08T00:01:28.908Z,99560.14
2017-10-08T00:02:35.420Z,99557.86
2017-10-08T00:03:41.185Z,99557.58
2017-10-08T00:04:46.936Z,99560.52
2017-10-08T00:05:52.693Z,99557.14
2017-10-08T00:06:58.460Z,99555.78
2017-10-08T00:08:04.972Z,99560.43
2017-10-08T00:09:10.707Z,99555.70
2017-10-08T00:10:16.463Z,99564.84
2017-10-08T00:11:22.201Z,99552.27
2017-10-08T00:12:27.968Z,99556.94
2017-10-08T00:13:34.495Z,99548.44
2017-10-08T00:14:40.235Z,99550.27
2017-10-08T00:15:45.983Z,99554.53
2017-10-08T00:16:51.732Z,99554.36
2017-10-08T00:17:57.504Z,99555.44
2017-10-08T00:19:04.080Z,99556.55
2017-10-08T00:20:10.587Z,99546.67
2017-10-08T00:21:16.349Z,99545.64
2017-10-08T00:22:22.877Z,99547.33
2017-10-08T00:23:28.650Z,99551.22
2017-10-08T00:24:34.424Z,99553.25
2017-10-08T00:25:40.924Z,99550.47
2017-10-08T00:26:46.668Z,99550.02
2017-10-08T00:27:52.484Z,99543.37
2017-10-08T00:28:58.256Z,99537.33
2017-10-08T00:30:03.996Z,99547.36
2017-10-08T00:31:09.749Z,99543.91
2017-10-08T00:32:16.006Z,99548.79
2017-10-08T00:33:21.736Z,99541.41
2017-10-08T00:34:27.512Z,99542.03
2017-10-08T00:35:33.259Z,99538.59
2017-10-08T00:36:39.776Z,99533.86
2017-10-08T00:37:45.527Z,99541.76
2017-10-08T00:38:51.274Z,99541.43
2017-10-08T00:39:57.052Z,99539.21
2017-10-08T00:41:02.800Z,99542.69
2017-10-08T00:42:08.543Z,99543.67
2017-10-08T00:43:14.307Z,99542.06
2017-10-08T00:44:19.868Z,99527.86
2017-10-08T00:45:25.454Z,99525.89
2017-10-08T00:46:31.203Z,99526.78
2017-10-08T00:47:36.972Z,99532.77
2017-10-08T00:48:43.747Z,99531.94
2017-10-08T00:49:49.491Z,99532.45
2017-10-08T00:50:55.268Z,99535.73
2017-10-08T00:52:01.783Z,99531.22
2017-10-08T00:53:07.532Z,99530.02
2017-10-08T00:54:13.272Z,99534.39
2017-10-08T00:55:18.324Z,99535.27
2017-10-08T00:56:24.224Z,99535.56
2017-10-08T00:57:29.284Z,99533.77
2017-10-08T00:58:34.348Z,99534.52
2017-10-08T00:59:39.404Z,99534.39
2017-10-08T01:00:44.447Z,99539.42
2017-10-08T01:01:50.392Z,99532.78
2017-10-08T01:02:56.138Z,99527.56
2017-10-08T01:04:01.885Z,99535.44
2017-10-08T01:05:07.633Z,99532.84
2017-10-08T01:06:13.402Z,99540.27
2017-10-08T01:07:19.940Z,99532.53
2017-10-08T01:08:26.462Z,99536.70
2017-10-08T01:09:32.216Z,99534.30
2017-10-08T01:10:37.972Z,99538.91
2017-10-08T01:11:43.736Z,99539.93
2017-10-08T01:12:50.272Z,99536.21
2017-10-08T01:13:56.024Z,99533.19
2017-10-08T01:15:02.550Z,99532.83
2017-10-08T01:16:08.302Z,99534.75
2017-10-08T01:17:14.048Z,99535.56
2017-10-08T01:18:19.824Z,99529.78
2017-10-08T01:19:25.661Z,99536.39
2017-10-08T01:20:31.819Z,99531.69
2017-10-08T01:21:37.648Z,99528.07
2017-10-08T01:22:43.551Z,99537.12
2017-10-08T01:23:49.050Z,99535.35
2017-10-08T01:24:54.913Z,99538.76
2017-10-08T01:26:00.449Z,99546.31
2017-10-08T01:27:05.349Z,99538.80
2017-10-08T01:28:10.408Z,99546.84
2017-10-08T01:29:15.504Z,99544.03
2017-10-08T01:30:20.661Z,99549.00
2017-10-08T01:31:26.060Z,99539.72
2017-10-08T01:32:31.476Z,99542.78
2017-10-08T01:33:37.342Z,99542.23
2017-10-08T01:34:43.868Z,99547.09
2017-10-08T01:35:48.955Z,99549.06
2017-10-08T01:36:53.997Z,99544.75
2017-10-08T01:37:59.125Z,99549.99
2017-10-08T01:39:04.117Z,99551.48
2017-10-08T01:40:09.551Z,99551.91
2017-10-08T01:41:14.761Z,99552.95
2017-10-08T01:42:20.522Z,99550.56
2017-10-08T01:43:26.143Z,99556.45
2017-10-08T01:44:32.703Z,99547.75
2017-10-08T01:45:39.229Z,99553.98
2017-10-08T01:46:44.991Z,99550.47
2017-10-08T01:47:51.152Z,99555.28
2017-10-08T01:48:56.888Z,99551.30
2017-10-08T01:50:03.421Z,99546.29
2017-10-08T01:51:09.095Z,99547.67
2017-10-08T01:52:15.595Z,99548.10
2017-10-08T01:53:21.344Z,99553.38
2017-10-08T01:54:27.099Z,99545.05
2017-10-08T01:55:32.488Z,99548.34
2017-10-08T01:56:38.263Z,99542.66
2017-10-08T01:57:44.054Z,99546.97
2017-10-08T01:58:50.556Z,99545.29
2017-10-08T01:59:56.322Z,99546.01
2017-10-08T02:01:03.585Z,99543.52
2017-10-08T02:02:09.388Z,99540.17
2017-10-08T02:03:15.219Z,99541.19
2017-10-08T02:04:21.397Z,99545.80
2017-10-08T02:05:27.139Z,99548.70
2017-10-08T02:06:32.900Z,99546.03
2017-10-08T02:07:38.696Z,99551.84
2017-10-08T02:08:45.192Z,99541.89
2017-10-08T02:09:50.952Z,99549.17
2017-10-08T02:10:56.004Z,99542.87
2017-10-08T02:12:02.593Z,99545.48
2017-10-08T02:13:08.356Z,99547.43
2017-10-08T02:14:13.921Z,99550.87
2017-10-08T02:15:19.686Z,99551.80
2017-10-08T02:16:26.261Z,99553.88
2017-10-08T02:17:33.024Z,99550.61
2017-10-08T02:18:39.557Z,99550.97
2017-10-08T02:19:45.296Z,99554.86
2017-10-08T02:20:51.040Z,99553.84
2017-10-08T02:21:58.156Z,99554.44
2017-10-08T02:23:03.901Z,99550.09
2017-10-08T02:24:09.701Z,99551.08
2017-10-08T02:25:15.437Z,99548.69
2017-10-08T02:26:21.215Z,99562.11
2017-10-08T02:27:27.015Z,99558.64
2017-10-08T02:28:32.753Z,99564.11
2017-10-08T02:29:38.572Z,99561.20
2017-10-08T02:30:44.313Z,99563.52
2017-10-08T02:31:49.864Z,99565.08
2017-10-08T02:32:55.612Z,99559.09
2017-10-08T02:34:01.356Z,99565.44
2017-10-08T02:35:07.146Z,99562.15
2017-10-08T02:36:12.909Z,99562.66
2017-10-08T02:37:18.664Z,99558.87
2017-10-08T02:38:24.402Z,99564.36
2017-10-08T02:39:30.147Z,99565.44
2017-10-08T02:40:35.908Z,99569.66
2017-10-08T02:41:41.648Z,99559.27
2017-10-08T02:42:48.164Z,99562.86
2017-10-08T02:43:53.912Z,99568.22
2017-10-08T02:44:59.663Z,99571.03
2017-10-08T02:46:05.082Z,99568.42
2017-10-08T02:47:10.840Z,99565.04
2017-10-08T02:48:16.597Z,99567.46
2017-10-08T02:49:22.178Z,99565.40
2017-10-08T02:50:28.734Z,99572.95
2017-10-08T02:51:35.267Z,99570.95
2017-10-08T02:52:41.007Z,99581.37
2017-10-08T02:53:46.744Z,99581.77
2017-10-08T02:54:52.501Z,99580.41
2017-10-08T02:55:59.002Z,99581.43
2017-10-08T02:57:04.773Z,99588.09
2017-10-08T02:58:10.524Z,99590.75
2017-10-08T02:59:16.272Z,99583.83
2017-10-08T03:00:22.012Z,99589.31
2017-10-08T03:01:28.530Z,99591.47
2017-10-08T03:02:34.336Z,99585.83
2017-10-08T03:03:40.911Z,99586.82
2017-10-08T03:04:46.651Z,99586.88
2017-10-08T03:05:52.416Z,99583.63
2017-10-08T03:06:58.236Z,99590.81
2017-10-08T03:08:04.795Z,99582.95
2017-10-08T03:09:10.776Z,99595.09
2017-10-08T03:10:16.536Z,99594.77
2017-10-08T03:11:22.279Z,99593.54
2017-10-08T03:12:28.015Z,99592.43
2017-10-08T03:13:33.794Z,99588.92
2017-10-08T03:14:40.300Z,99593.02
2017-10-08T03:15:46.032Z,99591.14
2017-10-08T03:16:51.780Z,99602.38
2017-10-08T03:17:57.319Z,99596.02
2017-10-08T03:19:03.112Z,99596.20
2017-10-08T03:20:09.696Z,99595.19
2017-10-08T03:21:15.438Z,99598.36
2017-10-08T03:22:21.004Z,99599.34
2017-10-08T03:23:26.757Z,99605.33
2017-10-08T03:24:32.520Z,99599.88
2017-10-08T03:25:39.036Z,99598.89
2017-10-08T03:26:44.777Z,99600.60
2017-10-08T03:27:50.520Z,99605.85
2017-10-08T03:28:56.265Z,99608.84
2017-10-08T03:30:02.040Z,99603.09
2017-10-08T03:31:07.798Z,99604.91
2017-10-08T03:32:14.296Z,99599.02
2017-10-08T03:33:20.043Z,99602.13
2017-10-08T03:34:25.784Z,99597.22
2017-10-08T03:35:31.631Z,99597.39
2017-10-08T03:36:37.346Z,99601.83
2017-10-08T03:37:43.092Z,99609.71
2017-10-08T03:38:48.832Z,99605.70
2017-10-08T03:39:54.460Z,99605.67
2017-10-08T03:41:00.399Z,99607.63
2017-10-08T03:42:06.725Z,99611.70
2017-10-08T03:43:12.485Z,99609.53
2017-10-08T03:44:18.244Z,99607.77
2017-10-08T03:45:24.033Z,99606.16
2017-10-08T03:46:29.793Z,99611.48
2017-10-08T03:47:35.541Z,99614.23
2017-10-08T03:48:41.284Z,99617.08
2017-10-08T03:49:47.819Z,99613.63
2017-10-08T03:50:53.556Z,99611.89
2017-10-08T03:51:59.320Z,99617.25
2017-10-08T03:53:05.067Z,99612.70
2017-10-08T03:54:10.810Z,99617.91
2017-10-08T03:55:17.316Z,99618.95
2017-10-08T03:56:23.068Z,99620.25
2017-10-08T03:57:28.859Z,99624.22
2017-10-08T03:58:35.385Z,99618.30
2017-10-08T03:59:41.129Z,99623.38
2017-10-08T04:00:46.884Z,99622.05
2017-10-08T04:01:52.639Z,99627.43
2017-10-08T04:02:59.172Z,99623.52
2017-10-08T04:04:04.921Z,99618.82
2017-10-08T04:05:10.685Z,99621.88
2017-10-08T04:06:17.216Z,99623.94
2017-10-08T04:07:22.965Z,99623.19
2017-10-08T04:08:28.544Z,99629.55
2017-10-08T04:09:34.296Z,99635.72
2017-10-08T04:10:40.057Z,99635.63
2017-10-08T04:11:45.621Z,99635.63
2017-10-08T04:12:51.181Z,99639.87
2017-10-08T04:13:57.543Z,99638.50
2017-10-08T04:15:04.047Z,99637.45
2017-10-08T04:16:09.616Z,99634.87
2017-10-08T04:17:15.355Z,99635.53
2017-10-08T04:18:20.911Z,99632.28
2017-10-08T04:19:27.272Z,99634.06
2017-10-08T04:20:33.603Z,99628.27
2017-10-08T04:21:39.347Z,99633.31
2017-10-08T04:22:44.695Z,99623.73
2017-10-08T04:23:51.204Z,99631.30
2017-10-08T04:24:56.985Z,99634.41
2017-10-08T04:26:02.726Z,99637.82
2017-10-08T04:27:08.459Z,99642.25
2017-10-08T04:28:15.160Z,99638.34
2017-10-08T04:29:20.910Z,99638.80
2017-10-08T04:30:26.696Z,99638.95
2017-10-08T04:31:32.446Z,99641.25
2017-10-08T04:32:38.963Z,99636.86
2017-10-08T04:33:44.705Z,99640.58
2017-10-08T04:34:50.459Z,99644.89
2017-10-08T04:35:56.048Z,99642.61
2017-10-08T04:37:02.572Z,99640.73
2017-10-08T04:38:08.321Z,99640.89
2017-10-08T04:39:14.116Z,99646.86
2017-10-08T04:40:19.714Z,99640.59
2017-10-08T04:41:25.481Z,99641.77
2017-10-08T04:42:31.357Z,99641.75
2017-10-08T04:43:37.099Z,99646.01
2017-10-08T04:44:42.880Z,99647.97
2017-10-08T04:45:48.656Z,99647.42
2017-10-08T04:46:54.420Z,99645.39
2017-10-08T04:48:00.180Z,99648.19
2017-10-08T04:49:05.927Z,99641.03
2017-10-08T04:50:11.466Z,99643.23
2017-10-08T04:51:17.210Z,99650.09
2017-10-08T04:52:22.973Z,99648.04
2017-10-08T04:53:28.714Z,99651.61
2017-10-08T04:54:35.229Z,99654.42
2017-10-08T04:55:40.975Z,99648.98
2017-10-08T04:56:46.712Z,99658.79
2017-10-08T04:57:52.608Z,99657.27
2017-10-08T04:58:59.184Z,99657.23
2017-10-08T05:00:05.883Z,99660.08
2017-10-08T05:01:11.689Z,99656.38
2017-10-08T05:02:18.250Z,99649.09
2017-10-08T05:03:24.784Z,99656.16
2017-10-08T05:04:31.289Z,99657.00
2017-10-08T05:05:37.028Z,99660.38
2017-10-08T05:06:42.772Z,99655.53
2017-10-08T05:07:48.518Z,99654.59
2017-10-08T05:08:54.080Z,99656.88
2017-10-08T05:09:59.823Z,99659.04
2017-10-08T05:11:05.560Z,99663.77
2017-10-08T05:12:10.960Z,99653.10
2017-10-08T05:13:16.712Z,99659.69
2017-10-08T05:14:22.148Z,99661.80
2017-10-08T05:15:27.551Z,99661.43
2017-10-08T05:16:33.292Z,99663.56
2017-10-08T05:17:39.041Z,99661.48
2017-10-08T05:18:44.783Z,99663.61
2017-10-08T05:19:50.619Z,99664.06
2017-10-08T05:20:57.128Z,99665.84
2017-10-08T05:22:02.868Z,99664.67
2017-10-08T05:23:08.631Z,99670.16
2017-10-08T05:24:15.128Z,99668.50
2017-10-08T05:25:20.948Z,99667.13
2017-10-08T05:26:27.448Z,99669.77
2017-10-08T05:27:33.191Z,99666.31
2017-10-08T05:28:39.721Z,99675.79
2017-10-08T05:29:45.469Z,99676.20
2017-10-08T05:30:51.237Z,99676.51
2017-10-08T05:31:56.998Z,99677.41
2017-10-08T05:33:02.768Z,99671.50
2017-10-08T05:34:08.549Z,99675.45
2017-10-08T05:35:14.303Z,99675.81
2017-10-08T05:36:20.063Z,99681.22
2017-10-08T05:37:26.064Z,99679.86
2017-10-08T05:38:32.568Z,99682.35
2017-10-08T05:39:38.341Z,99679.80
2017-10-08T05:40:44.849Z,99684.66
2017-10-08T05:41:50.612Z,99683.61
2017-10-08T05:42:56.347Z,99686.09
2017-10-08T05:44:02.156Z,99683.22
2017-10-08T05:45:07.910Z,99682.66
2017-10-08T05:46:13.652Z,99683.43
2017-10-08T05:47:19.223Z,99681.84
2017-10-08T05:48:25.746Z,99681.91
2017-10-08T05:49:31.567Z,99680.52
2017-10-08T05:50:38.079Z,99688.05
2017-10-08T05:51:43.820Z,99690.53
2017-10-08T05:52:49.612Z,99691.91
2017-10-08T05:53:55.384Z,99687.20
2017-10-08T05:55:00.916Z,99690.14
2017-10-08T05:56:06.658Z,99697.25
2017-10-08T05:57:12.396Z,99691.03
2017-10-08T05:58:18.164Z,99694.94
2017-10-08T05:59:23.954Z,99689.12
2017-10-08T06:00:30.451Z,99695.50
2017-10-08T06:01:36.191Z,99697.73
2017-10-08T06:02:41.940Z,99696.11
2017-10-08T06:03:47.838Z,99698.41
2017-10-08T06:04:53.400Z,99704.08
2017-10-08T06:05:59.148Z,99702.78
2017-10-08T06:07:04.899Z,99700.99
2017-10-08T06:08:10.639Z,99700.30
2017-10-08T06:09:16.400Z,99701.23
2017-10-08T06:10:21.795Z,99706.17
2017-10-08T06:11:27.552Z,99708.93
2017-10-08T06:12:33.292Z,99708.84
2017-10-08T06:13:39.044Z,99708.51
2017-10-08T06:14:45.141Z,99708.00
2017-10-08T06:15:51.649Z,99709.05
2017-10-08T06:16:57.496Z,99711.00
2017-10-08T06:18:03.490Z,99706.64
2017-10-08T06:19:10.018Z,99710.55
2017-10-08T06:20:15.779Z,99718.19
2017-10-08T06:21:22.316Z,99711.39
2017-10-08T06:22:28.064Z,99715.27
2017-10-08T06:23:33.800Z,99712.78
2017-10-08T06:24:39.804Z,99714.28
2017-10-08T06:25:45.576Z,99711.88
2017-10-08T06:26:51.319Z,99714.85
2017-10-08T06:27:56.873Z,99714.91
2017-10-08T06:29:03.380Z,99715.75
2017-10-08T06:30:09.147Z,99716.95
2017-10-08T06:31:14.922Z,99717.85
2017-10-08T06:32:20.665Z,99717.30
2017-10-08T06:33:26.481Z,99726.78
2017-10-08T06:34:32.219Z,99721.17
2017-10-08T06:35:37.987Z,99727.05
2017-10-08T06:36:43.747Z,99729.00
2017-10-08T06:37:50.268Z,99729.42
2017-10-08T06:38:56.003Z,99730.59
2017-10-08T06:40:01.759Z,99730.89
2017-10-08T06:41:07.492Z,99727.47
2017-10-08T06:42:13.267Z,99730.36
2017-10-08T06:43:19.764Z,99733.27
2017-10-08T06:44:25.503Z,99733.56
2017-10-08T06:45:31.240Z,99731.53
2017-10-08T06:46:36.975Z,99735.23
2017-10-08T06:47:42.746Z,99737.79
2017-10-08T06:48:48.500Z,99738.73
2017-10-08T06:49:54.238Z,99741.48
2017-10-08T06:50:59.982Z,99745.87
2017-10-08T06:52:05.732Z,99740.28
2017-10-08T06:53:11.484Z,99745.31
2017-10-08T06:54:17.234Z,99740.45
2017-10-08T06:55:23.757Z,99746.66
2017-10-08T06:56:29.499Z,99743.55
2017-10-08T06:57:35.315Z,99742.14
2017-10-08T06:58:41.091Z,99748.20
2017-10-08T06:59:46.837Z,99746.55
2017-10-08T07:00:52.590Z,99742.21
2017-10-08T07:01:58.357Z,99740.38
2017-10-08T07:03:04.137Z,99749.31
2017-10-08T07:04:09.698Z,99749.42
2017-10-08T07:05:15.461Z,99755.52
2017-10-08T07:06:21.199Z,99753.47
2017-10-08T07:07:27.704Z,99754.17
2017-10-08T07:08:33.439Z,99753.69
2017-10-08T07:09:39.224Z,99761.02
2017-10-08T07:10:44.969Z,99757.52
2017-10-08T07:11:50.708Z,99759.61
2017-10-08T07:12:57.953Z,99761.15
2017-10-08T07:14:03.755Z,99759.44
2017-10-08T07:15:10.326Z,99758.55
2017-10-08T07:16:16.888Z,99760.57
2017-10-08T07:17:23.381Z,99758.47
2017-10-08T07:18:29.132Z,99761.06
2017-10-08T07:19:34.869Z,99758.17
2017-10-08T07:20:40.462Z,99763.83
2017-10-08T07:21:45.857Z,99760.88
2017-10-08T07:22:51.596Z,99768.70
2017-10-08T07:23:57.336Z,99765.06
2017-10-08T07:25:03.092Z,99768.89
2017-10-08T07:26:08.869Z,99760.48
2017-10-08T07:27:14.399Z,99755.98
2017-10-08T07:28:20.147Z,99761.48
2017-10-08T07:29:25.887Z,99759.63
2017-10-08T07:30:31.653Z,99760.06
2017-10-08T07:31:37.216Z,99757.92
2017-10-08T07:32:42.957Z,99759.14
2017-10-08T07:33:48.705Z,99756.35
2017-10-08T07:34:54.454Z,99753.91
2017-10-08T07:36:00.191Z,99761.02
2017-10-08T07:37:05.968Z,99755.42
2017-10-08T07:38:11.723Z,99761.23
2017-10-08T07:39:17.457Z,99757.84
2017-10-08T07:40:23.200Z,99763.58
2017-10-08T07:41:28.945Z,99763.66
2017-10-08T07:42:34.759Z,99757.34
2017-10-08T07:43:40.553Z,99768.20
2017-10-08T07:44:46.363Z,99761.28
2017-10-08T07:45:52.874Z,99764.69
2017-10-08T07:46:59.055Z,99766.31
2017-10-08T07:48:05.589Z,99763.05
2017-10-08T07:49:11.131Z,99770.83
2017-10-08T07:50:16.874Z,99768.78
2017-10-08T07:51:22.616Z,99767.48
2017-10-08T07:52:28.360Z,99767.23
2017-10-08T07:53:33.780Z,99765.84
2017-10-08T07:54:39.960Z,99775.93
2017-10-08T07:55:46.018Z,99773.39
2017-10-08T07:56:52.534Z,99776.03
2017-10-08T07:57:58.268Z,99779.02
2017-10-08T07:59:04.050Z,99778.83
2017-10-08T08:00:10.556Z,99775.70
2017-10-08T08:01:16.302Z,99779.67
2017-10-08T08:02:22.080Z,99783.20
2017-10-08T08:03:27.916Z,99791.14
2017-10-08T08:04:33.696Z,99784.03
2017-10-08T08:05:39.455Z,99781.80
2017-10-08T08:06:45.270Z,99787.43
2017-10-08T08:07:51.794Z,99791.05
2017-10-08T08:08:57.540Z,99785.29
2017-10-08T08:10:03.101Z,99789.27
2017-10-08T08:11:09.609Z,99789.77
2017-10-08T08:12:15.344Z,99788.13
2017-10-08T08:13:26.690Z,99792.41
2017-10-08T08:14:32.434Z,99785.28
2017-10-08T08:15:38.228Z,99791.12
2017-10-08T08:16:44.320Z,99793.38
2017-10-08T08:17:50.816Z,99792.95
2017-10-08T08:18:56.569Z,99801.05
2017-10-08T08:20:02.308Z,99791.89
2017-10-08T08:21:08.077Z,99794.78
2017-10-08T08:22:17.714Z,99796.44
2017-10-08T08:23:25.095Z,99797.78
2017-10-08T08:24:31.800Z,99798.97
2017-10-08T08:25:37.692Z,99796.81
2017-10-08T08:26:44.380Z,99795.77
2017-10-08T08:27:50.325Z,99794.41
2017-10-08T08:28:57.761Z,99793.38
2017-10-08T08:30:04.308Z,99792.29
2017-10-08T08:31:10.056Z,99793.64
2017-10-08T08:32:15.826Z,99795.37
2017-10-08T08:33:23.236Z,99801.78
2017-10-08T08:34:29.056Z,99818.09
2017-10-08T08:35:36.491Z,99843.19
2017-10-08T08:36:42.347Z,99844.61
2017-10-08T08:37:49.240Z,99839.27
2017-10-08T08:38:55.153Z,99856.35
2017-10-08T08:40:01.586Z,99850.59
2017-10-08T08:41:07.415Z,99847.36
2017-10-08T08:42:13.316Z,99854.34
2017-10-08T08:43:20.001Z,99846.24
2017-10-08T08:44:26.319Z,99851.22
2017-10-08T08:45:33.349Z,99848.58
2017-10-08T08:46:39.101Z,99846.82
2017-10-08T08:47:44.839Z,99847.23
2017-10-08T08:48:50.608Z,99849.46
2017-10-08T08:49:56.366Z,99850.14
2017-10-08T08:51:02.134Z,99853.77
2017-10-08T08:52:07.869Z,99856.84
2017-10-08T08:53:13.616Z,99859.66
2017-10-08T08:54:20.171Z,99868.19
2017-10-08T08:55:25.913Z,99864.70
2017-10-08T08:56:31.665Z,99868.61
2017-10-08T08:57:38.236Z,99879.12
2017-10-08T08:58:44.539Z,99875.14
2017-10-08T08:59:51.101Z,99876.66
2017-10-08T09:00:57.249Z,99879.88
2017-10-08T09:02:06.033Z,99881.02
2017-10-08T09:03:11.744Z,99885.50
2017-10-08T09:04:20.206Z,99884.34
2017-10-08T09:05:26.313Z,99885.24
2017-10-08T09:06:32.568Z,99890.81
2017-10-08T09:07:38.406Z,99892.70
2017-10-08T09:08:44.135Z,99897.61
2017-10-08T09:09:50.679Z,99899.84
2017-10-08T09:10:56.451Z,99900.63
2017-10-08T09:12:02.268Z,99898.47
2017-10-08T09:13:08.877Z,99902.96
2017-10-08T09:14:14.811Z,99900.38
2017-10-08T09:15:20.650Z,99903.77
2017-10-08T09:16:26.466Z,99908.74
2017-10-08T09:17:32.536Z,99906.16
2017-10-08T09:18:39.633Z,99910.39
2017-10-08T09:19:45.385Z,99908.97
2017-10-08T09:20:51.333Z,99909.16
2017-10-08T09:21:57.525Z,99907.91
2017-10-08T09:23:03.278Z,99909.65
2017-10-08T09:24:11.064Z,99917.70
2017-10-08T09:25:17.572Z,99915.98
2017-10-08T09:26:23.039Z,99910.52
2017-10-08T09:27:28.679Z,99921.12
2017-10-08T09:28:36.029Z,99920.95
2017-10-08T09:29:41.601Z,99926.71
2017-10-08T09:30:47.416Z,99920.02
2017-10-08T09:31:53.174Z,99925.38
2017-10-08T09:32:58.740Z,99923.97
2017-10-08T09:34:05.274Z,99931.33
2017-10-08T09:35:10.841Z,99934.88
2017-10-08T09:36:17.366Z,99940.33
2017-10-08T09:37:23.660Z,99942.91
2017-10-08T09:38:30.055Z,99943.38
2017-10-08T09:39:35.863Z,99942.70
2017-10-08T09:40:41.908Z,99951.05
2017-10-08T09:41:47.685Z,99954.02
2017-10-08T09:42:53.972Z,99954.03
2017-10-08T09:44:01.356Z,99953.39
2017-10-08T09:45:07.962Z,99951.65
2017-10-08T09:46:13.765Z,99960.51
2017-10-08T09:47:19.703Z,99960.18
2017-10-08T09:48:25.678Z,99964.73
2017-10-08T09:49:31.573Z,99962.27
2017-10-08T09:50:37.755Z,99969.58
2017-10-08T09:51:44.364Z,99959.81
2017-10-08T09:52:50.120Z,99964.18
2017-10-08T09:53:55.972Z,99967.41
2017-10-08T09:55:01.790Z,99962.64
2017-10-08T09:56:07.674Z,99964.78
2017-10-08T09:57:13.460Z,99961.22
2017-10-08T09:58:20.084Z,99960.89
2017-10-08T09:59:25.929Z,99957.92
2017-10-08T10:00:32.551Z,99961.06
2017-10-08T10:01:38.301Z,99963.39
2017-10-08T10:02:44.172Z,99958.25
2017-10-08T10:03:51.889Z,99961.06
2017-10-08T10:04:57.963Z,99972.57
2017-10-08T10:06:03.989Z,99971.09
2017-10-08T10:07:10.017Z,99973.90
2017-10-08T10:08:16.779Z,99975.12
2017-10-08T10:09:23.536Z,99973.64
2017-10-08T10:10:29.716Z,99976.88
2017-10-08T10:11:35.808Z,99975.55
2017-10-08T10:12:41.716Z,99976.13
2017-10-08T10:13:47.665Z,99983.82
2017-10-08T10:14:53.486Z,99982.08
2017-10-08T10:15:59.499Z,99982.17
2017-10-08T10:17:05.204Z,99984.30
2017-10-08T10:18:11.205Z,99986.56
2017-10-08T10:19:18.002Z,99983.34
2017-10-08T10:20:23.942Z,99993.20
2017-10-08T10:21:29.986Z,99992.78
2017-10-08T10:22:36.098Z,99986.16
2017-10-08T10:23:42.604Z,99979.78
2017-10-08T10:24:48.634Z,99979.38
2017-10-08T10:25:55.316Z,99985.34
2017-10-08T10:27:01.259Z,99983.66
2017-10-08T10:28:07.514Z,99981.17
2017-10-08T10:29:14.376Z,99979.94
2017-10-08T10:30:20.535Z,99977.58
2017-10-08T10:31:27.242Z,99978.02
2017-10-08T10:32:33.328Z,99971.41
2017-10-08T10:33:39.395Z,99982.83
2017-10-08T10:34:45.542Z,99980.41
2017-10-08T10:35:51.591Z,99978.27
2017-10-08T10:36:57.752Z,99982.30
2017-10-08T10:38:04.711Z,99988.74
2017-10-08T10:39:11.636Z,99985.59
2017-10-08T10:40:17.691Z,99989.97
2017-10-08T10:41:24.480Z,99992.23
2017-10-08T10:42:30.646Z,99991.48
2017-10-08T10:43:36.796Z,99986.34
2017-10-08T10:44:42.843Z,99990.99
2017-10-08T10:45:49.317Z,99992.69
2017-10-08T10:46:55.339Z,99987.11
2017-10-08T10:48:01.357Z,99986.80
2017-10-08T10:49:08.422Z,99990.05
2017-10-08T10:50:14.412Z,99994.59
2017-10-08T10:51:20.660Z,99991.84
2017-10-08T10:52:27.181Z,99999.66
2017-10-08T10:53:33.279Z,100003.23
2017-10-08T10:54:40.051Z,100003.48
2017-10-08T10:55:46.562Z,100002.14
2017-10-08T10:56:52.599Z,100003.36
2017-10-08T10:57:58.657Z,100005.03
2017-10-08T10:59:05.471Z,99999.31
2017-10-08T11:00:11.561Z,100001.25
2017-10-08T11:01:18.552Z,99994.78
2017-10-08T11:02:25.368Z,99996.44
2017-10-08T11:03:31.543Z,100001.50
2017-10-08T11:04:37.598Z,100003.47
2017-10-08T11:05:43.847Z,100007.39
2017-10-08T11:06:50.254Z,99999.83
2017-10-08T11:07:56.376Z,100002.73
2017-10-08T11:09:02.497Z,100012.17
2017-10-08T11:10:08.602Z,100005.61
2017-10-08T11:11:14.550Z,100008.58
2017-10-08T11:12:20.331Z,100009.90
2017-10-08T11:13:27.167Z,100011.80
2017-10-08T11:14:33.318Z,100008.44
2017-10-08T11:15:39.367Z,100010.55
2017-10-08T11:16:46.191Z,100009.31
2017-10-08T11:17:53.150Z,100014.82
2017-10-08T11:18:59.310Z,100012.66
2017-10-08T11:20:06.207Z,100009.10
2017-10-08T11:21:12.420Z,100010.01
2017-10-08T11:22:18.464Z,100014.83
2017-10-08T11:23:24.571Z,100012.17
2017-10-08T11:24:30.686Z,100017.73
2017-10-08T11:25:38.712Z,100015.50
2017-10-08T11:26:44.875Z,100012.35
2017-10-08T11:27:51.174Z,100011.54
2017-10-08T11:28:59.430Z,100021.23
2017-10-08T11:30:05.386Z,100018.39
2017-10-08T11:31:11.520Z,100023.94
2017-10-08T11:32:17.778Z,100024.60
2017-10-08T11:33:24.739Z,100023.50
2017-10-08T11:34:31.971Z,100021.61
2017-10-08T11:35:39.933Z,100021.01
2017-10-08T11:36:45.968Z,100019.41
2017-10-08T11:37:52.006Z,100018.76
2017-10-08T11:38:58.054Z,100023.56
2017-10-08T11:40:04.258Z,100020.37
2017-10-08T11:41:10.558Z,100019.89
2017-10-08T11:42:17.521Z,100016.20
2017-10-08T11:43:23.476Z,100016.37
2017-10-08T11:44:29.759Z,100022.30
2017-10-08T11:45:35.980Z,100017.07
2017-10-08T11:46:43.153Z,100019.07
2017-10-08T11:47:50.229Z,100019.23
2017-10-08T11:48:56.085Z,100008.84
2017-10-08T11:50:02.135Z,100014.02
2017-10-08T11:51:08.370Z,100019.08
2017-10-08T11:52:14.497Z,100021.25
2017-10-08T11:53:20.747Z,100014.02
2017-10-08T11:54:26.903Z,100022.47
2017-10-08T11:55:32.843Z,100015.38
2017-10-08T11:56:38.912Z,100021.78
2017-10-08T11:57:45.272Z,100020.83
2017-10-08T11:58:51.386Z,100027.31
2017-10-08T11:59:58.523Z,100031.38
2017-10-08T12:01:06.550Z,100031.73
2017-10-08T12:02:14.676Z,100028.16
2017-10-08T12:03:21.946Z,100030.58
2017-10-08T12:04:28.230Z,100032.25
2017-10-08T12:05:34.385Z,100034.80
2017-10-08T12:06:40.531Z,100024.78
2017-10-08T12:07:46.684Z,100028.67
2017-10-08T12:08:52.832Z,100026.27
2017-10-08T12:09:58.853Z,100031.34
2017-10-08T12:11:04.853Z,100029.49
2017-10-08T12:12:10.847Z,100026.61
2017-10-08T12:13:17.026Z,100028.33
2017-10-08T12:14:24.280Z,100027.10
2017-10-08T12:15:30.363Z,100031.98
2017-10-08T12:16:36.410Z,100030.34
2017-10-08T12:17:42.560Z,100023.78
2017-10-08T12:18:48.614Z,100025.58
2017-10-08T12:19:54.648Z,100028.96
2017-10-08T12:21:00.696Z,100027.00
2017-10-08T12:22:06.773Z,100026.42
2017-10-08T12:23:13.098Z,100029.16
2017-10-08T12:24:19.046Z,100025.73
2017-10-08T12:25:25.131Z,100022.18
2017-10-08T12:26:32.438Z,100026.08
2017-10-08T12:27:39.245Z,100029.98
2017-10-08T12:28:45.397Z,100031.06
2017-10-08T12:29:51.583Z,100030.03
2017-10-08T12:30:57.772Z,100033.09
2017-10-08T12:32:04.723Z,100026.38
2017-10-08T12:33:11.620Z,100025.03
2017-10-08T12:34:18.106Z,100025.44
2017-10-08T12:35:24.344Z,100031.06
2017-10-08T12:36:30.689Z,100029.84
2017-10-08T12:37:36.742Z,100031.44
2017-10-08T12:38:42.620Z,100029.27
2017-10-08T12:39:49.475Z,100030.80
2017-10-08T12:40:55.543Z,100032.30
2017-10-08T12:42:02.390Z,100029.90
2017-10-08T12:43:08.406Z,100030.63
2017-10-08T12:44:15.424Z,100023.73
2017-10-08T12:45:21.615Z,100028.81
2017-10-08T12:46:27.750Z,100029.74
2017-10-08T12:47:34.628Z,100028.27
2017-10-08T12:48:41.020Z,100037.77
2017-10-08T12:49:47.817Z,100030.73
2017-10-08T12:50:54.581Z,100033.97
2017-10-08T12:52:01.735Z,100039.43